Time;durP1;ratioP1;P1;durP2;ratioP2;P2;SDS_P1;SDS_P2;PMS_P1;PMS_P2;Temp;Humidity;BMP_temperature;BMP_pressure;BME280_temperature;BME280_humidity;BME280_pressure;Samples;Min_cycle;Max_cycle;Signal;HPM_P1;HPM_P2
2021/04/26 00:01:19;;;;;;;;;;;;;;;8.81;70.15;101335.66;1901042;75;20250;-76
2021/04/26 00:03:47;;;;;;;;;;;;;;;8.79;69.93;101328.44;1901309;75;20303;-76
2021/04/26 00:06:16;;;;;;;;;;;;;;;8.78;69.56;101335.80;1901348;75;20215;-78
2021/04/26 00:08:43;;;;;;;;;;;;;;;8.80;69.16;101328.83;1901370;75;20210;-73
2021/04/26 00:11:11;;;;;;;;;;;;;;;8.79;68.97;101329.28;1901446;75;22200;-77
2021/04/26 00:13:39;;;;;;;;;;;;;;;8.80;68.74;101338.73;1901265;75;20211;-76
2021/04/26 00:19:00;;;;;;;;;;;;;;;8.76;68.59;101336.34;1901333;75;20132;-78
2021/04/26 00:21:29;;;;;;;;;;;;;;;8.72;68.45;101340.82;1901283;75;20250;-75
2021/04/26 00:24:04;;;;;;;;;;;;;;;8.69;68.49;101337.09;1901137;75;22206;-77
2021/04/26 00:26:33;;;;;;;;;;;;;;;8.65;68.53;101336.00;1901347;75;20209;-76
2021/04/26 00:29:01;;;;;;;;;;;;;;;8.62;68.48;101338.28;1901315;75;20143;-79
2021/04/26 00:31:28;;;;;;;;;;;;;;;8.62;68.40;101339.58;1901281;75;20771;-79
2021/04/26 00:33:56;;;;;;;;;;;;;;;8.59;68.41;101342.31;1900942;75;20215;-78
2021/04/26 00:36:25;;;;;;;;;;;;;;;8.57;68.38;101334.24;1901246;75;21602;-76
2021/04/26 00:38:53;;;;;;;;;;;;;;;8.54;68.28;101337.82;1901466;75;20239;-79
2021/04/26 00:41:21;;;;;;;;;;;;;;;8.54;68.12;101340.86;1901192;75;20219;-77
2021/04/26 00:43:49;;;;;;;;;;;;;;;8.54;67.92;101339.11;1901250;75;20318;-76
2021/04/26 00:46:17;;;;;;;;;;;;;;;8.54;67.47;101328.77;1901135;75;20234;-77
2021/04/26 00:48:46;;;;;;;;;;;;;;;8.55;67.36;101327.02;1901211;75;21604;-79
2021/04/26 00:51:13;;;;;;;;;;;;;;;8.53;67.13;101318.02;1900990;75;20238;-76
2021/04/26 00:53:41;;;;;;;;;;;;;;;8.52;66.86;101318.92;1901495;75;20489;-77
2021/04/26 00:56:09;;;;;;;;;;;;;;;8.51;66.66;101318.56;1901129;75;20603;-79
2021/04/26 00:58:39;;;;;;;;;;;;;;;8.49;66.51;101317.33;1901274;75;20219;-77
2021/04/26 01:01:08;;;;;;;;;;;;;;;8.47;66.46;101320.45;1901447;75;22380;-78
2021/04/26 01:03:39;;;;;;;;;;;;;;;8.46;66.34;101321.80;1901320;75;20580;-78
2021/04/26 01:06:06;;;;;;;;;;;;;;;8.42;66.24;101322.39;1901117;75;20202;-79
2021/04/26 01:08:34;;;;;;;;;;;;;;;8.41;66.27;101317.31;1901165;75;20230;-80
2021/04/26 01:11:10;;;;;;;;;;;;;;;8.40;66.20;101317.77;1901206;75;20258;-78
2021/04/26 01:13:45;;;;;;;;;;;;;;;8.41;66.04;101318.16;1901085;75;21176;-79
2021/04/26 01:16:25;;;;;;;;;;;;;;;8.40;65.94;101315.63;1901070;75;20127;-78
2021/04/26 01:19:04;;;;;;;;;;;;;;;8.39;65.69;101316.55;1901042;75;20131;-79
2021/04/26 01:21:41;;;;;;;;;;;;;;;8.37;65.63;101310.59;1901190;75;20269;-78
2021/04/26 01:25:00;;;;;;;;;;;;;;;8.39;65.41;101308.31;1922313;73;20238;-79
2021/04/26 01:27:36;;;;;;;;;;;;;;;8.36;65.22;101311.53;1892130;75;20128;-78
2021/04/26 01:30:12;;;;;;;;;;;;;;;8.34;65.24;101310.73;1891885;75;21646;-79
2021/04/26 01:32:59;;;;;;;;;;;;;;;8.31;65.14;101307.84;1877158;76;20786;-79
2021/04/26 01:35:27;;;;;;;;;;;;;;;8.28;65.23;101309.73;1892056;76;20124;-79
2021/04/26 01:37:58;;;;;;;;;;;;;;;8.23;65.42;101315.07;1892108;76;20132;-79
2021/04/26 01:40:26;;;;;;;;;;;;;;;8.19;65.55;101317.88;1891990;76;20159;-76
2021/04/26 01:42:57;;;;;;;;;;;;;;;8.12;65.75;101324.23;1892197;75;21580;-76
2021/04/26 01:45:25;;;;;;;;;;;;;;;8.08;65.96;101325.27;1892027;76;20143;-77
2021/04/26 01:47:56;;;;;;;;;;;;;;;8.05;66.21;101328.84;1892194;76;20143;-77
2021/04/26 01:50:27;;;;;;;;;;;;;;;8.03;66.36;101321.63;1891974;76;20870;-77
2021/04/26 01:52:55;;;;;;;;;;;;;;;8.01;66.69;101325.19;1892057;76;20104;-75
2021/04/26 01:55:23;;;;;;;;;;;;;;;7.97;66.85;101326.62;1891676;75;21646;-76
2021/04/26 01:57:51;;;;;;;;;;;;;;;7.94;67.13;101322.03;1892145;76;20168;-78
2021/04/26 02:00:23;;;;;;;;;;;;;;;7.93;67.38;101322.48;1891942;75;20513;-76
2021/04/26 02:03:01;;;;;;;;;;;;;;;7.91;67.51;101318.30;1891681;76;20203;-80
2021/04/26 02:05:33;;;;;;;;;;;;;;;7.88;67.64;101314.08;1890439;76;20148;-80
2021/04/26 02:08:02;;;;;;;;;;;;;;;7.90;67.48;101308.86;1890672;76;21181;-79
2021/04/26 02:10:32;;;;;;;;;;;;;;;7.93;67.17;101308.72;1889845;76;20148;-79
2021/04/26 02:13:00;;;;;;;;;;;;;;;7.94;66.99;101308.63;1892543;76;20147;-78
2021/04/26 02:15:29;;;;;;;;;;;;;;;7.98;66.67;101308.05;1892129;76;20124;-78
2021/04/26 02:17:57;;;;;;;;;;;;;;;8.03;66.45;101312.58;1892259;76;20124;-78
2021/04/26 02:20:25;;;;;;;;;;;;;;;8.07;66.31;101304.23;1891893;76;21585;-79
2021/04/26 02:22:53;;;;;;;;;;;;;;;8.15;65.93;101305.55;1891627;75;20489;-79
2021/04/26 02:25:21;;;;;;;;;;;;;;;8.18;65.73;101301.53;1892103;75;20262;-80
2021/04/26 02:27:49;;;;;;;;;;;;;;;8.24;65.54;101301.69;1857751;76;20179;-81
2021/04/26 02:30:18;;;;;;;;;;;;;;;8.27;65.45;101301.55;1892027;76;20337;-77
2021/04/26 02:33:17;;;;;;;;;;;;;;;8.30;65.36;101304.87;1892501;76;21077;-78
2021/04/26 02:36:01;;;;;;;;;;;;;;;8.32;65.27;101298.34;1885798;76;20603;-76
2021/04/26 02:38:36;;;;;;;;;;;;;;;8.32;65.10;101290.14;1891581;76;20104;-79
2021/04/26 02:41:09;;;;;;;;;;;;;;;8.33;64.98;101294.83;1891502;76;20243;-76
2021/04/26 02:43:41;;;;;;;;;;;;;;;8.36;64.89;101299.41;1891873;76;20128;-77
2021/04/26 02:46:09;;;;;;;;;;;;;;;8.35;64.98;101292.58;1892299;76;21177;-78
2021/04/26 02:48:41;;;;;;;;;;;;;;;8.35;65.00;101294.33;1892092;76;20168;-78
2021/04/26 02:51:09;;;;;;;;;;;;;;;8.36;65.04;101290.36;1892574;76;20182;-78
2021/04/26 02:53:36;;;;;;;;;;;;;;;8.36;64.96;101298.12;1891783;76;20139;-79
2021/04/26 02:56:06;;;;;;;;;;;;;;;8.36;64.96;101292.95;1892162;76;20289;-78
2021/04/26 02:58:36;;;;;;;;;;;;;;;8.35;65.02;101296.46;1891474;76;21183;-79
2021/04/26 03:01:08;;;;;;;;;;;;;;;8.34;64.94;101293.93;1891102;76;20583;-79
2021/04/26 03:03:41;;;;;;;;;;;;;;;8.35;64.40;101305.52;1889607;76;20239;-80
2021/04/26 03:06:11;;;;;;;;;;;;;;;8.38;64.08;101308.41;1858899;76;20536;-77
2021/04/26 03:08:40;;;;;;;;;;;;;;;8.38;63.81;101304.08;1887154;76;20128;-80
2021/04/26 03:11:12;;;;;;;;;;;;;;;8.40;63.68;101307.42;1891291;75;21341;-81
2021/04/26 03:13:42;;;;;;;;;;;;;;;8.40;63.23;101303.53;1891464;76;20124;-79
2021/04/26 03:16:11;;;;;;;;;;;;;;;8.42;63.08;101300.89;1891509;75;20167;-78
2021/04/26 03:18:40;;;;;;;;;;;;;;;8.43;63.10;101307.72;1891532;76;20109;-77
2021/04/26 03:21:10;;;;;;;;;;;;;;;8.46;62.86;101298.07;1891396;75;20171;-79
2021/04/26 03:23:41;;;;;;;;;;;;;;;8.51;62.44;101300.45;1898262;75;21447;-78
2021/04/26 03:26:08;;;;;;;;;;;;;;;8.58;62.05;101287.63;1877288;75;20519;-77
2021/04/26 03:28:38;;;;;;;;;;;;;;;8.66;61.41;101293.70;1907542;75;20182;-79
2021/04/26 03:31:06;;;;;;;;;;;;;;;8.73;61.21;101293.80;1907659;75;20641;-76
2021/04/26 03:33:39;;;;;;;;;;;;;;;8.78;60.88;101293.11;1905896;75;20278;-79
2021/04/26 03:36:07;;;;;;;;;;;;;;;8.86;60.35;101293.14;1907732;75;22018;-76
2021/04/26 03:38:37;;;;;;;;;;;;;;;8.94;59.04;101292.28;1907741;75;20135;-78
2021/04/26 03:41:06;;;;;;;;;;;;;;;9.04;58.71;101286.20;1877600;75;20123;-76
2021/04/26 03:43:34;;;;;;;;;;;;;;;9.14;58.20;101291.76;1878150;75;20225;-77
2021/04/26 03:46:04;;;;;;;;;;;;;;;9.22;56.32;101288.34;1906639;75;20139;-75
2021/04/26 03:48:50;;;;;;;;;;;;;;;9.31;55.50;101282.70;1907599;75;22436;-79
2021/04/26 03:51:24;;;;;;;;;;;;;;;9.41;55.04;101283.42;1906770;75;20215;-79
2021/04/26 03:54:05;;;;;;;;;;;;;;;9.46;54.27;101284.05;1902682;75;20190;-77
2021/04/26 03:56:40;;;;;;;;;;;;;;;9.52;54.01;101290.20;1907549;75;20239;-76
2021/04/26 03:59:09;;;;;;;;;;;;;;;9.58;53.38;101301.54;1908223;75;20171;-77
2021/04/26 04:01:38;;;;;;;;;;;;;;;9.65;53.23;101305.11;1907754;75;21173;-78
2021/04/26 04:04:06;;;;;;;;;;;;;;;9.68;52.82;101305.79;1907535;75;20120;-76
2021/04/26 04:06:52;;;;;;;;;;;;;;;9.74;52.82;101311.95;1907494;75;20140;-76
2021/04/26 04:09:34;;;;;;;;;;;;;;;9.79;52.06;101322.09;1902990;75;20234;-78
2021/04/26 04:12:03;;;;;;;;;;;;;;;9.87;51.40;101321.20;1899968;75;20238;-77
2021/04/26 04:14:42;;;;;;;;;;;;;;;9.93;51.15;101320.43;1906589;75;21640;-76
2021/04/26 04:17:10;;;;;;;;;;;;;;;9.95;50.71;101320.37;1907463;75;20146;-76
2021/04/26 04:19:38;;;;;;;;;;;;;;;9.96;50.81;101325.45;1907636;75;20140;-79
2021/04/26 04:22:07;;;;;;;;;;;;;;;9.94;50.87;101324.70;1906964;75;20136;-75
2021/04/26 04:24:36;;;;;;;;;;;;;;;9.95;50.37;101328.14;1895689;75;20255;-75
2021/04/26 04:27:04;;;;;;;;;;;;;;;9.99;50.34;101327.88;1891217;76;21346;-75
2021/04/26 04:29:32;;;;;;;;;;;;;;;10.02;49.96;101330.77;1891234;75;20919;-76
2021/04/26 04:32:04;;;;;;;;;;;;;;;10.06;49.86;101338.77;1886408;76;20496;-78
2021/04/26 04:34:51;;;;;;;;;;;;;;;10.11;49.85;101343.27;1891124;76;20116;-75
2021/04/26 04:37:23;;;;;;;;;;;;;;;10.17;50.08;101350.75;1884551;76;20222;-76
2021/04/26 04:40:12;;;;;;;;;;;;;;;10.21;50.29;101344.45;1761836;80;21373;-74
2021/04/26 04:42:53;;;;;;;;;;;;;;;10.26;50.52;101347.66;1760859;81;20178;-75
2021/04/26 04:45:22;;;;;;;;;;;;;;;10.31;50.70;101352.13;1809945;76;20513;-77
2021/04/26 04:48:14;;;;;;;;;;;;;;;10.33;50.93;101346.42;1890987;76;20128;-75
2021/04/26 04:50:44;;;;;;;;;;;;;;;10.33;51.24;101337.34;1890144;76;20216;-75
2021/04/26 04:53:12;;;;;;;;;;;;;;;10.35;51.63;101338.53;1890992;76;21657;-75
2021/04/26 04:55:39;;;;;;;;;;;;;;;10.35;52.00;101333.34;1891065;74;20179;-76
2021/04/26 04:58:08;;;;;;;;;;;;;;;10.29;52.41;101322.85;1891084;76;20105;-75
2021/04/26 05:00:35;;;;;;;;;;;;;;;10.24;52.18;101323.58;1891234;76;20235;-79
2021/04/26 05:03:19;;;;;;;;;;;;;;;10.21;51.35;101319.81;1804177;76;20293;-78
2021/04/26 05:06:05;;;;;;;;;;;;;;;10.21;50.93;101319.01;1890970;74;21786;-75
2021/04/26 05:08:45;;;;;;;;;;;;;;;10.19;50.81;101327.31;1761577;80;20244;-74
2021/04/26 05:11:24;;;;;;;;;;;;;;;10.19;50.50;101339.83;1886200;76;20105;-76
2021/04/26 05:14:00;;;;;;;;;;;;;;;10.24;51.25;101348.67;1866823;76;20128;-77
2021/04/26 05:16:29;;;;;;;;;;;;;;;10.25;51.95;101354.22;1891190;76;20125;-76
2021/04/26 05:18:57;;;;;;;;;;;;;;;10.32;53.89;101358.16;1891047;76;22246;-76
2021/04/26 05:21:24;;;;;;;;;;;;;;;10.35;55.39;101351.51;1891127;76;20149;-76
2021/04/26 05:23:52;;;;;;;;;;;;;;;10.34;56.68;101355.05;1891064;75;20113;-77
2021/04/26 05:26:21;;;;;;;;;;;;;;;10.34;58.58;101362.83;1891205;76;20167;-75
2021/04/26 05:28:49;;;;;;;;;;;;;;;10.32;60.88;101364.19;1891210;76;20325;-75
2021/04/26 05:31:16;;;;;;;;;;;;;;;10.22;61.37;101369.48;1891384;74;21628;-74
2021/04/26 05:33:44;;;;;;;;;;;;;;;10.15;62.03;101368.13;1891324;75;20865;-77
2021/04/26 05:36:14;;;;;;;;;;;;;;;10.08;62.57;101372.77;1888360;76;20132;-76
2021/04/26 05:38:43;;;;;;;;;;;;;;;10.03;62.84;101365.70;1888536;76;20203;-77
2021/04/26 05:41:12;;;;;;;;;;;;;;;10.01;62.94;101375.33;1891020;75;20226;-75
2021/04/26 05:43:40;;;;;;;;;;;;;;;10.02;63.05;101373.55;1891446;76;21616;-77
2021/04/26 05:46:08;;;;;;;;;;;;;;;10.02;63.28;101372.25;1891207;76;20364;-78
2021/04/26 05:48:38;;;;;;;;;;;;;;;10.01;63.53;101372.73;1891220;76;20151;-80
2021/04/26 05:51:06;;;;;;;;;;;;;;;10.02;64.06;101379.58;1890965;74;20147;-77
2021/04/26 05:53:34;;;;;;;;;;;;;;;10.05;63.79;101375.52;1891295;76;20203;-75
2021/04/26 05:56:03;;;;;;;;;;;;;;;10.05;64.50;101382.50;1891176;74;21645;-75
2021/04/26 05:58:33;;;;;;;;;;;;;;;10.06;64.68;101378.96;1890754;74;20314;-74
2021/04/26 06:01:00;;;;;;;;;;;;;;;10.08;66.03;101367.58;1878138;76;20325;-76
2021/04/26 06:03:28;;;;;;;;;;;;;;;10.14;66.02;101372.12;1860557;76;20281;-76
2021/04/26 06:05:57;;;;;;;;;;;;;;;10.18;65.75;101371.86;1856325;77;20312;-74
2021/04/26 06:08:25;;;;;;;;;;;;;;;10.09;66.40;101380.09;1861372;74;21172;-77
2021/04/26 06:10:53;;;;;;;;;;;;;;;10.05;66.90;101390.27;1875176;76;20255;-77
2021/04/26 06:13:22;;;;;;;;;;;;;;;10.01;67.45;101383.56;1856923;76;20221;-74
2021/04/26 06:15:51;;;;;;;;;;;;;;;10.02;67.98;101383.92;1856783;77;20479;-77
2021/04/26 06:18:21;;;;;;;;;;;;;;;9.99;68.01;101382.33;1856538;77;20268;-73
2021/04/26 06:20:50;;;;;;;;;;;;;;;9.96;68.84;101395.91;1856678;77;21131;-76
2021/04/26 06:23:18;;;;;;;;;;;;;;;9.93;69.52;101391.73;1867965;76;20165;-79
2021/04/26 06:25:46;;;;;;;;;;;;;;;10.00;70.23;101396.98;1903171;75;20215;-76
2021/04/26 06:28:15;;;;;;;;;;;;;;;10.04;70.01;101392.48;1907628;75;20302;-76
2021/04/26 06:30:45;;;;;;;;;;;;;;;10.09;70.24;101396.50;1899404;75;20534;-76
2021/04/26 06:33:19;;;;;;;;;;;;;;;10.13;70.26;101395.88;1872962;75;22204;-76
2021/04/26 06:35:52;;;;;;;;;;;;;;;10.11;69.73;101397.73;1872310;76;20209;-78
2021/04/26 06:38:21;;;;;;;;;;;;;;;10.10;69.76;101399.94;1872085;76;20252;-77
2021/04/26 06:40:51;;;;;;;;;;;;;;;10.09;69.25;101397.80;1872114;75;20287;-76
2021/04/26 06:43:19;;;;;;;;;;;;;;;10.10;68.72;101397.34;1872175;76;20181;-77
2021/04/26 06:45:49;;;;;;;;;;;;;;;10.14;69.23;101398.05;1872127;76;21190;-75
2021/04/26 06:48:18;;;;;;;;;;;;;;;10.17;69.25;101400.03;1872310;76;20213;-77
2021/04/26 06:50:47;;;;;;;;;;;;;;;10.23;68.59;101404.89;1872016;76;20213;-75
2021/04/26 06:53:15;;;;;;;;;;;;;;;10.34;69.32;101405.14;1872180;76;20503;-77
2021/04/26 06:55:45;;;;;;;;;;;;;;;10.49;69.57;101406.11;1868609;75;20227;-81
2021/04/26 06:58:14;;;;;;;;;;;;;;;10.61;68.77;101405.44;1865692;77;21401;-75
2021/04/26 07:00:44;;;;;;;;;;;;;;;10.66;68.64;101398.22;1865534;77;20208;-76
2021/04/26 07:03:13;;;;;;;;;;;;;;;10.75;68.65;101411.18;1865537;77;20233;-80
2021/04/26 07:05:43;;;;;;;;;;;;;;;10.80;68.66;101411.30;1865446;75;20273;-77
2021/04/26 07:08:12;;;;;;;;;;;;;;;10.82;68.63;101418.53;1865755;77;20217;-77
2021/04/26 07:10:40;;;;;;;;;;;;;;;10.85;68.59;101412.36;1865711;75;20971;-75
2021/04/26 07:13:08;;;;;;;;;;;;;;;10.90;69.34;101411.17;1865449;77;20126;-79
2021/04/26 07:15:36;;;;;;;;;;;;;;;11.04;69.34;101409.92;1865518;75;20491;-76
2021/04/26 07:18:04;;;;;;;;;;;;;;;11.20;69.27;101416.39;1865573;75;20162;-76
2021/04/26 07:20:32;;;;;;;;;;;;;;;11.39;68.03;101409.22;1865348;77;20166;-76
2021/04/26 07:23:03;;;;;;;;;;;;;;;11.54;67.26;101408.36;1865446;75;21358;-73
2021/04/26 07:25:31;;;;;;;;;;;;;;;11.76;67.44;101408.42;1856419;76;20300;-79
2021/04/26 07:28:02;;;;;;;;;;;;;;;12.01;66.90;101408.18;1852945;76;20138;-77
2021/04/26 07:30:31;;;;;;;;;;;;;;;12.29;65.68;101418.20;1852795;77;20154;-74
2021/04/26 07:32:59;;;;;;;;;;;;;;;12.42;63.88;101421.27;1852082;77;20273;-73
2021/04/26 07:35:27;;;;;;;;;;;;;;;12.49;63.50;101428.23;1852306;77;21800;-75
2021/04/26 07:37:58;;;;;;;;;;;;;;;12.71;63.88;101429.42;1852717;76;20188;-75
2021/04/26 07:40:26;;;;;;;;;;;;;;;12.94;62.82;101429.27;1863052;75;20485;-76
2021/04/26 07:42:54;;;;;;;;;;;;;;;12.92;62.31;101438.13;1871802;75;20804;-78
2021/04/26 07:45:23;;;;;;;;;;;;;;;12.73;62.14;101437.95;1871264;76;20215;-78
2021/04/26 07:47:57;;;;;;;;;;;;;;;12.56;62.69;101439.49;1871618;76;21178;-76
2021/04/26 07:50:26;;;;;;;;;;;;;;;12.40;62.31;101443.97;1871293;75;20521;-76
2021/04/26 07:52:55;;;;;;;;;;;;;;;12.30;62.92;101456.32;1871542;76;20164;-81
2021/04/26 07:55:23;;;;;;;;;;;;;;;12.24;63.76;101457.53;1871226;75;20112;-74
2021/04/26 07:57:51;;;;;;;;;;;;;;;12.23;64.02;101455.02;1871364;75;20223;-77
2021/04/26 08:00:42;;;;;;;;;;;;;;;12.27;64.10;101465.62;1871658;76;22244;-76
2021/04/26 08:03:11;;;;;;;;;;;;;;;12.21;64.45;101464.23;1871184;75;20489;-79
2021/04/26 08:05:39;;;;;;;;;;;;;;;12.30;64.12;101459.77;1871538;76;20219;-78
2021/04/26 08:08:07;;;;;;;;;;;;;;;12.57;62.96;101462.47;1871404;76;20492;-76
2021/04/26 08:10:36;;;;;;;;;;;;;;;12.79;62.15;101461.97;1870118;74;20146;-79
2021/04/26 08:13:04;;;;;;;;;;;;;;;12.97;60.96;101455.13;1875953;76;22031;-79
2021/04/26 08:15:45;;;;;;;;;;;;;;;13.05;59.85;101465.89;1891362;75;20216;-74
2021/04/26 08:18:15;;;;;;;;;;;;;;;12.92;60.61;101464.17;1891279;76;20195;-73
2021/04/26 08:20:43;;;;;;;;;;;;;;;12.89;61.11;101464.37;1891379;76;20271;-74
2021/04/26 08:23:11;;;;;;;;;;;;;;;12.94;59.24;101462.30;1890815;74;20513;-72
2021/04/26 08:25:39;;;;;;;;;;;;;;;12.98;59.11;101460.72;1900946;74;21092;-74
2021/04/26 08:28:08;;;;;;;;;;;;;;;13.05;58.11;101461.98;1907459;74;20207;-76
2021/04/26 08:30:38;;;;;;;;;;;;;;;13.15;57.36;101462.26;1907796;75;20103;-77
2021/04/26 08:33:06;;;;;;;;;;;;;;;13.42;56.82;101470.09;1907907;75;20558;-74
2021/04/26 08:35:34;;;;;;;;;;;;;;;13.68;56.53;101471.37;1907645;75;20215;-74
2021/04/26 08:38:15;;;;;;;;;;;;;;;;;;;;;
2021/04/26 08:40:48;;;;;;;;;;;;;;;13.73;55.24;101464.06;1922561;73;20206;-74
2021/04/26 08:43:20;;;;;;;;;;;;;;;13.57;56.08;101470.38;1891804;75;20139;-74
2021/04/26 08:45:48;;;;;;;;;;;;;;;13.66;56.22;101471.08;1892185;76;21219;-78
2021/04/26 08:48:18;;;;;;;;;;;;;;;13.83;54.89;101474.72;1892125;76;20236;-75
2021/04/26 08:50:46;;;;;;;;;;;;;;;13.76;55.06;101477.36;1892101;76;20481;-74
2021/04/26 08:53:14;;;;;;;;;;;;;;;13.92;55.30;101474.10;1891943;76;20139;-82
2021/04/26 08:55:42;;;;;;;;;;;;;;;14.25;55.19;101478.36;1891146;76;20230;-74
2021/04/26 08:58:11;;;;;;;;;;;;;;;14.47;53.56;101486.89;1891492;76;21216;-76
2021/04/26 09:00:39;;;;;;;;;;;;;;;14.66;53.02;101483.36;1892031;74;20698;-77
2021/04/26 09:03:09;;;;;;;;;;;;;;;14.67;51.90;101485.51;1890646;74;20124;-74
2021/04/26 09:05:40;;;;;;;;;;;;;;;14.44;52.85;101483.19;1859760;76;20229;-76
2021/04/26 09:08:13;;;;;;;;;;;;;;;14.51;53.44;101488.36;1886020;76;20227;-74
2021/04/26 09:10:53;;;;;;;;;;;;;;;14.44;53.58;101487.10;1892818;76;20207;-73
2021/04/26 09:13:35;;;;;;;;;;;;;;;14.44;53.30;101501.46;1893867;75;20139;-76
2021/04/26 09:16:24;;;;;;;;;;;;;;;14.40;52.10;101499.99;1859896;76;20107;-72
2021/04/26 09:19:00;;;;;;;;;;;;;;;14.36;52.37;101490.69;1859134;77;20221;-73
2021/04/26 09:21:33;;;;;;;;;;;;;;;14.52;52.98;101491.30;1857966;77;20131;-73
2021/04/26 09:24:24;;;;;;;;;;;;;;;14.67;52.44;101492.04;1856225;77;22460;-76
2021/04/26 09:27:11;;;;;;;;;;;;;;;14.87;52.09;101489.34;1867989;74;20480;-76
2021/04/26 09:29:42;;;;;;;;;;;;;;;14.97;51.11;101487.25;1886080;73;20286;-75
2021/04/26 09:32:20;;;;;;;;;;;;;;;15.12;50.50;101486.64;1893311;74;20263;-72
2021/04/26 09:34:52;;;;;;;;;;;;;;;15.15;51.32;101478.11;1891948;74;20148;-74
2021/04/26 09:37:29;;;;;;;;;;;;;;;15.44;51.30;101472.54;1888029;74;21181;-77
2021/04/26 09:40:12;;;;;;;;;;;;;;;15.66;49.50;101470.03;1886762;74;21087;-78
2021/04/26 09:42:55;;;;;;;;;;;;;;;15.51;48.72;101473.30;1852766;77;20217;-72
2021/04/26 09:45:32;;;;;;;;;;;;;;;15.38;49.22;101469.88;1879749;74;20320;-76
2021/04/26 09:48:19;;;;;;;;;;;;;;;15.47;49.48;101472.31;1885230;76;20215;-72
2021/04/26 09:51:02;;;;;;;;;;;;;;;15.72;49.71;101461.26;1885379;76;21629;-75
2021/04/26 09:53:35;;;;;;;;;;;;;;;16.28;48.84;101462.64;1885829;75;20525;-74
2021/04/26 09:56:12;;;;;;;;;;;;;;;16.33;48.04;101460.52;1853037;76;20104;-81
2021/04/26 09:58:42;;;;;;;;;;;;;;;16.36;47.78;101461.13;1886572;76;20672;-74
2021/04/26 10:01:13;;;;;;;;;;;;;;;16.34;47.28;101461.70;1885283;75;20522;-79
2021/04/26 10:03:41;;;;;;;;;;;;;;;16.64;46.49;101462.45;1868199;76;21658;-75
2021/04/26 10:06:13;;;;;;;;;;;;;;;16.89;45.22;101465.27;1856509;77;20127;-78
2021/04/26 10:08:46;;;;;;;;;;;;;;;16.99;45.31;101460.95;1878291;76;20136;-76
2021/04/26 10:11:15;;;;;;;;;;;;;;;17.39;44.83;101455.45;1891312;76;20495;-78
2021/04/26 10:13:46;;;;;;;;;;;;;;;17.84;43.79;101465.28;1891341;76;20258;-79
2021/04/26 10:16:22;;;;;;;;;;;;;;;18.06;42.26;101461.67;1891192;76;21607;-74
2021/04/26 10:18:56;;;;;;;;;;;;;;;18.60;41.36;101461.42;1891077;75;20124;-75
2021/04/26 10:21:28;;;;;;;;;;;;;;;19.24;41.04;101454.42;1891702;76;20615;-77
2021/04/26 10:23:58;;;;;;;;;;;;;;;20.62;39.81;101447.63;1891366;75;20219;-77
2021/04/26 10:26:48;;;;;;;;;;;;;;;21.93;36.42;101442.95;1891030;76;20139;-77
2021/04/26 10:29:31;;;;;;;;;;;;;;;22.97;34.78;101445.75;1891043;74;21756;-81
2021/04/26 10:32:15;;;;;;;;;;;;;;;23.19;32.09;101450.42;1891696;76;20136;-75
2021/04/26 10:34:52;;;;;;;;;;;;;;;23.18;32.93;101442.63;1891026;75;20306;-80
2021/04/26 10:37:22;;;;;;;;;;;;;;;23.81;31.50;101448.11;1891181;76;20223;-80
2021/04/26 10:40:01;;;;;;;;;;;;;;;23.89;30.76;101451.25;1891143;75;20211;-77
2021/04/26 10:42:41;;;;;;;;;;;;;;;23.83;30.58;101446.13;1858808;74;21253;-74
2021/04/26 10:45:23;;;;;;;;;;;;;;;23.12;31.39;101449.91;1886491;76;20144;-74
2021/04/26 10:48:09;;;;;;;;;;;;;;;22.26;32.76;101459.00;1891395;75;20109;-76
2021/04/26 10:50:40;;;;;;;;;;;;;;;21.43;34.38;101445.37;1874319;76;20123;-78
2021/04/26 10:53:10;;;;;;;;;;;;;;;21.22;34.18;101446.66;1858830;77;20206;-76
2021/04/26 10:55:43;;;;;;;;;;;;;;;20.46;35.60;101444.78;1852360;77;21187;-76
2021/04/26 10:58:27;;;;;;;;;;;;;;;20.50;35.61;101436.94;1856425;74;20225;-76
2021/04/26 11:00:55;;;;;;;;;;;;;;;20.86;35.44;101435.21;1851227;76;20182;-73
2021/04/26 11:03:29;;;;;;;;;;;;;;;20.64;34.43;101441.73;1865379;76;20141;-78
2021/04/26 11:06:00;;;;;;;;;;;;;;;20.54;35.63;101439.15;1891924;75;20301;-78
2021/04/26 11:08:37;;;;;;;;;;;;;;;20.72;35.02;101447.09;1886147;76;21252;-77
2021/04/26 11:11:15;;;;;;;;;;;;;;;20.93;34.33;101440.23;1881187;74;20205;-78
2021/04/26 11:13:54;;;;;;;;;;;;;;;21.25;34.13;101437.92;1873677;76;20108;-79
2021/04/26 11:16:27;;;;;;;;;;;;;;;21.18;33.81;101436.89;1869746;74;20165;-75
2021/04/26 11:19:03;;;;;;;;;;;;;;;21.45;33.74;101438.11;1865693;76;20521;-73
2021/04/26 11:21:49;;;;;;;;;;;;;;;21.79;33.53;101441.34;1892398;76;21728;-72
2021/04/26 11:24:28;;;;;;;;;;;;;;;22.10;32.68;101444.72;1880929;76;20249;-75
2021/04/26 11:27:13;;;;;;;;;;;;;;;21.81;33.36;101439.37;1857491;77;20142;-74
2021/04/26 11:29:45;;;;;;;;;;;;;;;21.83;33.51;101443.51;1857117;77;20436;-74
2021/04/26 11:32:16;;;;;;;;;;;;;;;21.47;34.18;101437.48;1856849;77;20245;-76
2021/04/26 11:34:53;;;;;;;;;;;;;;;21.75;33.92;101443.95;1856665;77;21189;-77
2021/04/26 11:37:21;;;;;;;;;;;;;;;21.77;33.65;101435.37;1885681;76;20581;-79
2021/04/26 11:39:53;;;;;;;;;;;;;;;21.62;33.12;101437.75;1894753;75;20104;-77
2021/04/26 11:42:33;;;;;;;;;;;;;;;20.98;34.58;101444.57;1906316;75;20386;-77
2021/04/26 11:45:03;;;;;;;;;;;;;;;20.89;34.55;101454.70;1907776;75;20131;-75
2021/04/26 11:47:32;;;;;;;;;;;;;;;20.81;34.57;101461.19;1907525;75;20492;-78
2021/04/26 11:50:00;;;;;;;;;;;;;;;20.46;34.85;101454.02;1907155;75;20226;-79
2021/04/26 11:52:29;;;;;;;;;;;;;;;20.23;35.60;101450.08;1906550;74;20203;-75
2021/04/26 11:55:08;;;;;;;;;;;;;;;20.22;35.82;101453.20;1906734;75;20222;-73
2021/04/26 11:57:54;;;;;;;;;;;;;;;20.18;36.42;101452.30;1907122;75;20136;-73
2021/04/26 12:00:27;;;;;;;;;;;;;;;20.70;35.91;101450.86;1907256;75;21177;-76
2021/04/26 12:03:05;;;;;;;;;;;;;;;21.28;34.28;101448.70;1907640;75;20274;-74
2021/04/26 12:05:33;;;;;;;;;;;;;;;21.24;33.98;101437.61;1907713;75;20504;-75
2021/04/26 12:08:03;;;;;;;;;;;;;;;21.45;34.28;101435.47;1907572;75;20128;-75
2021/04/26 12:10:39;;;;;;;;;;;;;;;21.84;33.42;101438.57;1907512;75;20127;-76
2021/04/26 12:13:03;;;;;;;;;;;;;;;21.52;33.02;101433.05;1906722;75;21632;-74
2021/04/26 12:15:33;;;;;;;;;;;;;;;21.27;33.49;101434.66;1907298;75;20488;-77
2021/04/26 12:18:21;;;;;;;;;;;;;;;21.58;34.26;101433.27;1894446;74;20215;-78
2021/04/26 12:21:04;;;;;;;;;;;;;;;21.70;33.19;101435.16;1898347;75;20143;-76
2021/04/26 12:23:34;;;;;;;;;;;;;;;22.26;32.86;101440.00;1900562;75;20207;-78
2021/04/26 12:26:03;;;;;;;;;;;;;;;22.24;32.35;101445.12;1900729;75;22202;-77
2021/04/26 12:28:42;;;;;;;;;;;;;;;21.67;31.83;101431.99;1900046;75;20203;-76
2021/04/26 12:31:22;;;;;;;;;;;;;;;20.90;33.26;101440.02;1900535;75;20128;-75
2021/04/26 12:33:51;;;;;;;;;;;;;;;20.63;34.26;101433.47;1900644;75;20302;-73
2021/04/26 12:36:20;;;;;;;;;;;;;;;21.30;34.28;101422.96;1900471;75;20262;-76
2021/04/26 12:38:51;;;;;;;;;;;;;;;22.05;33.24;101419.23;1900579;75;21082;-76
2021/04/26 12:41:20;;;;;;;;;;;;;;;23.25;31.86;101414.99;1895259;75;20264;-76
2021/04/26 12:43:54;;;;;;;;;;;;;;;23.88;29.40;101417.28;1893624;75;20159;-74
2021/04/26 12:46:24;;;;;;;;;;;;;;;23.51;30.23;101424.97;1893655;75;20104;-75
2021/04/26 12:48:53;;;;;;;;;;;;;;;22.55;31.64;101435.18;1893598;75;20212;-75
2021/04/26 12:51:30;;;;;;;;;;;;;;;21.87;32.23;101427.69;1893909;75;21185;-75
2021/04/26 12:54:09;;;;;;;;;;;;;;;21.30;33.63;101429.08;1893591;75;21043;-76
2021/04/26 12:56:39;;;;;;;;;;;;;;;21.08;34.06;101429.50;1894823;75;20477;-75
2021/04/26 12:59:09;;;;;;;;;;;;;;;20.66;34.19;101427.90;1889172;75;20227;-74
2021/04/26 13:01:38;;;;;;;;;;;;;;;20.20;35.01;101432.72;1860758;75;20258;-76
2021/04/26 13:04:08;;;;;;;;;;;;;;;19.79;35.70;101429.17;1894065;75;21331;-75
2021/04/26 13:06:47;;;;;;;;;;;;;;;19.30;36.06;101436.28;1893744;75;20183;-79
2021/04/26 13:09:13;;;;;;;;;;;;;;;18.86;36.94;101439.39;1893663;75;20108;-77